sensor_id;sensor_type;location;lat;lon;timestamp;P1;durP1;ratioP1;P2;durP2;ratioP2
41333;SDS011;27078;46.428;6.256;2023-03-15T00:00:35;3.20;;;0.30;;
41333;SDS011;27078;46.428;6.256;2023-03-15T00:03:00;1.48;;;0.30;;
41333;SDS011;27078;46.428;6.256;2023-03-15T00:05:28;3.97;;;0.52;;
41333;SDS011;27078;46.428;6.256;2023-03-15T00:07:53;2.60;;;0.40;;
41333;SDS011;27078;46.428;6.256;2023-03-15T00:10:19;1.98;;;0.25;;
41333;SDS011;27078;46.428;6.256;2023-03-15T00:12:44;2.05;;;0.30;;
41333;SDS011;27078;46.428;6.256;2023-03-15T00:15:12;2.05;;;0.40;;
41333;SDS011;27078;46.428;6.256;2023-03-15T00:17:39;3.30;;;0.30;;
41333;SDS011;27078;46.428;6.256;2023-03-15T00:20:05;2.25;;;0.22;;
41333;SDS011;27078;46.428;6.256;2023-03-15T00:22:31;1.83;;;0.30;;
41333;SDS011;27078;46.428;6.256;2023-03-15T00:24:56;3.80;;;0.40;;
41333;SDS011;27078;46.428;6.256;2023-03-15T00:27:21;4.43;;;0.20;;
41333;SDS011;27078;46.428;6.256;2023-03-15T00:29:47;2.78;;;0.40;;
41333;SDS011;27078;46.428;6.256;2023-03-15T00:32:12;2.40;;;0.40;;
41333;SDS011;27078;46.428;6.256;2023-03-15T00:34:39;2.03;;;0.40;;
41333;SDS011;27078;46.428;6.256;2023-03-15T00:37:04;2.83;;;0.40;;
41333;SDS011;27078;46.428;6.256;2023-03-15T00:39:29;2.63;;;0.40;;
41333;SDS011;27078;46.428;6.256;2023-03-15T00:41:55;1.50;;;0.30;;
41333;SDS011;27078;46.428;6.256;2023-03-15T00:44:23;2.60;;;0.30;;
41333;SDS011;27078;46.428;6.256;2023-03-15T00:46:48;1.90;;;0.30;;
41333;SDS011;27078;46.428;6.256;2023-03-15T00:49:14;1.40;;;0.30;;
41333;SDS011;27078;46.428;6.256;2023-03-15T00:51:39;3.72;;;0.47;;
41333;SDS011;27078;46.428;6.256;2023-03-15T00:54:05;2.50;;;0.32;;
41333;SDS011;27078;46.428;6.256;2023-03-15T00:56:30;3.05;;;0.22;;
41333;SDS011;27078;46.428;6.256;2023-03-15T00:58:56;1.90;;;0.40;;
41333;SDS011;27078;46.428;6.256;2023-03-15T01:01:23;1.90;;;0.20;;
41333;SDS011;27078;46.428;6.256;2023-03-15T01:03:51;2.90;;;0.50;;
41333;SDS011;27078;46.428;6.256;2023-03-15T01:06:18;1.90;;;0.50;;
41333;SDS011;27078;46.428;6.256;2023-03-15T01:08:45;2.28;;;0.30;;
41333;SDS011;27078;46.428;6.256;2023-03-15T01:11:12;2.40;;;0.30;;
41333;SDS011;27078;46.428;6.256;2023-03-15T01:13:42;1.92;;;0.38;;
41333;SDS011;27078;46.428;6.256;2023-03-15T01:16:09;2.42;;;0.40;;
41333;SDS011;27078;46.428;6.256;2023-03-15T01:18:36;3.47;;;0.30;;
41333;SDS011;27078;46.428;6.256;2023-03-15T01:21:02;3.20;;;0.40;;
41333;SDS011;27078;46.428;6.256;2023-03-15T01:23:30;2.13;;;0.32;;
41333;SDS011;27078;46.428;6.256;2023-03-15T01:25:58;2.80;;;0.30;;
41333;SDS011;27078;46.428;6.256;2023-03-15T01:28:25;1.02;;;0.38;;
41333;SDS011;27078;46.428;6.256;2023-03-15T01:30:50;3.60;;;0.30;;
41333;SDS011;27078;46.428;6.256;2023-03-15T01:33:16;2.10;;;0.32;;
41333;SDS011;27078;46.428;6.256;2023-03-15T01:35:42;1.73;;;0.20;;
41333;SDS011;27078;46.428;6.256;2023-03-15T01:38:08;1.50;;;0.52;;
41333;SDS011;27078;46.428;6.256;2023-03-15T01:40:34;2.53;;;0.35;;
41333;SDS011;27078;46.428;6.256;2023-03-15T01:43:11;5.32;;;0.45;;
41333;SDS011;27078;46.428;6.256;2023-03-15T01:46:00;3.60;;;0.38;;
41333;SDS011;27078;46.428;6.256;2023-03-15T01:54:01;2.47;;;0.40;;
41333;SDS011;27078;46.428;6.256;2023-03-15T01:56:31;2.63;;;0.60;;
41333;SDS011;27078;46.428;6.256;2023-03-15T01:58:59;1.35;;;0.40;;
41333;SDS011;27078;46.428;6.256;2023-03-15T02:01:27;1.15;;;0.25;;
41333;SDS011;27078;46.428;6.256;2023-03-15T02:03:59;1.08;;;0.28;;
41333;SDS011;27078;46.428;6.256;2023-03-15T02:06:29;1.20;;;0.30;;
41333;SDS011;27078;46.428;6.256;2023-03-15T02:08:59;2.20;;;0.40;;
41333;SDS011;27078;46.428;6.256;2023-03-15T02:11:28;1.98;;;0.32;;
41333;SDS011;27078;46.428;6.256;2023-03-15T02:13:54;2.03;;;0.32;;
41333;SDS011;27078;46.428;6.256;2023-03-15T02:16:22;1.48;;;0.20;;
41333;SDS011;27078;46.428;6.256;2023-03-15T02:18:49;1.60;;;0.50;;
41333;SDS011;27078;46.428;6.256;2023-03-15T02:21:23;2.45;;;0.30;;
41333;SDS011;27078;46.428;6.256;2023-03-15T02:26:53;1.20;;;0.30;;
41333;SDS011;27078;46.428;6.256;2023-03-15T02:29:21;0.75;;;0.38;;
41333;SDS011;27078;46.428;6.256;2023-03-15T02:31:49;2.28;;;0.40;;
41333;SDS011;27078;46.428;6.256;2023-03-15T02:34:15;1.33;;;0.30;;
41333;SDS011;27078;46.428;6.256;2023-03-15T02:36:41;2.03;;;0.43;;
41333;SDS011;27078;46.428;6.256;2023-03-15T02:39:16;1.40;;;0.30;;
41333;SDS011;27078;46.428;6.256;2023-03-15T02:41:45;2.15;;;0.30;;
41333;SDS011;27078;46.428;6.256;2023-03-15T02:44:15;2.15;;;0.30;;
41333;SDS011;27078;46.428;6.256;2023-03-15T02:46:43;1.05;;;0.35;;
41333;SDS011;27078;46.428;6.256;2023-03-15T02:49:11;1.33;;;0.30;;
41333;SDS011;27078;46.428;6.256;2023-03-15T02:51:38;2.40;;;0.30;;
41333;SDS011;27078;46.428;6.256;2023-03-15T02:54:04;3.50;;;0.47;;
41333;SDS011;27078;46.428;6.256;2023-03-15T02:56:29;1.50;;;0.43;;
41333;SDS011;27078;46.428;6.256;2023-03-15T02:58:57;1.85;;;0.43;;
41333;SDS011;27078;46.428;6.256;2023-03-15T03:01:23;2.05;;;0.57;;
41333;SDS011;27078;46.428;6.256;2023-03-15T03:03:48;0.88;;;0.38;;
41333;SDS011;27078;46.428;6.256;2023-03-15T03:06:14;0.82;;;0.30;;
41333;SDS011;27078;46.428;6.256;2023-03-15T03:08:40;1.15;;;0.35;;
41333;SDS011;27078;46.428;6.256;2023-03-15T03:11:06;0.88;;;0.28;;
41333;SDS011;27078;46.428;6.256;2023-03-15T03:13:31;2.38;;;0.32;;
41333;SDS011;27078;46.428;6.256;2023-03-15T03:15:57;1.75;;;0.40;;
41333;SDS011;27078;46.428;6.256;2023-03-15T03:18:26;1.55;;;0.30;;
41333;SDS011;27078;46.428;6.256;2023-03-15T03:20:56;1.27;;;0.22;;
41333;SDS011;27078;46.428;6.256;2023-03-15T03:23:23;1.27;;;0.22;;
41333;SDS011;27078;46.428;6.256;2023-03-15T03:25:53;2.25;;;0.40;;
41333;SDS011;27078;46.428;6.256;2023-03-15T03:28:23;1.92;;;0.32;;
41333;SDS011;27078;46.428;6.256;2023-03-15T03:30:51;1.95;;;0.30;;
41333;SDS011;27078;46.428;6.256;2023-03-15T03:33:17;3.88;;;0.40;;
41333;SDS011;27078;46.428;6.256;2023-03-15T03:35:43;0.70;;;0.30;;
41333;SDS011;27078;46.428;6.256;2023-03-15T03:38:09;3.17;;;0.32;;
41333;SDS011;27078;46.428;6.256;2023-03-15T03:40:36;1.77;;;0.32;;
41333;SDS011;27078;46.428;6.256;2023-03-15T03:43:02;1.77;;;0.52;;
41333;SDS011;27078;46.428;6.256;2023-03-15T03:45:27;1.88;;;0.40;;
41333;SDS011;27078;46.428;6.256;2023-03-15T03:47:52;1.40;;;0.45;;
41333;SDS011;27078;46.428;6.256;2023-03-15T03:50:18;3.90;;;0.60;;
41333;SDS011;27078;46.428;6.256;2023-03-15T03:52:43;1.50;;;0.32;;
41333;SDS011;27078;46.428;6.256;2023-03-15T03:55:09;1.08;;;0.35;;
41333;SDS011;27078;46.428;6.256;2023-03-15T03:57:37;1.20;;;0.30;;
41333;SDS011;27078;46.428;6.256;2023-03-15T04:00:03;2.13;;;0.40;;
41333;SDS011;27078;46.428;6.256;2023-03-15T04:02:29;1.40;;;0.40;;
41333;SDS011;27078;46.428;6.256;2023-03-15T04:04:54;1.33;;;0.20;;
41333;SDS011;27078;46.428;6.256;2023-03-15T04:07:20;1.10;;;0.38;;
41333;SDS011;27078;46.428;6.256;2023-03-15T04:09:45;2.45;;;0.30;;
41333;SDS011;27078;46.428;6.256;2023-03-15T04:12:11;2.08;;;0.40;;
41333;SDS011;27078;46.428;6.256;2023-03-15T04:14:36;1.10;;;0.40;;
41333;SDS011;27078;46.428;6.256;2023-03-15T04:17:01;1.70;;;0.40;;
41333;SDS011;27078;46.428;6.256;2023-03-15T04:19:28;1.30;;;0.40;;
41333;SDS011;27078;46.428;6.256;2023-03-15T04:21:54;1.58;;;0.38;;
41333;SDS011;27078;46.428;6.256;2023-03-15T04:24:20;1.10;;;0.20;;
41333;SDS011;27078;46.428;6.256;2023-03-15T04:26:45;2.40;;;0.40;;
41333;SDS011;27078;46.428;6.256;2023-03-15T04:29:11;2.13;;;0.40;;
41333;SDS011;27078;46.428;6.256;2023-03-15T04:31:38;1.10;;;0.32;;
41333;SDS011;27078;46.428;6.256;2023-03-15T04:34:03;1.33;;;0.30;;
41333;SDS011;27078;46.428;6.256;2023-03-15T04:36:29;1.02;;;0.30;;
41333;SDS011;27078;46.428;6.256;2023-03-15T04:38:55;1.10;;;0.28;;
41333;SDS011;27078;46.428;6.256;2023-03-15T04:41:29;1.15;;;0.40;;
41333;SDS011;27078;46.428;6.256;2023-03-15T04:43:55;1.85;;;0.40;;
41333;SDS011;27078;46.428;6.256;2023-03-15T04:46:21;1.08;;;0.25;;
41333;SDS011;27078;46.428;6.256;2023-03-15T04:48:46;1.55;;;0.40;;
41333;SDS011;27078;46.428;6.256;2023-03-15T04:51:11;1.63;;;0.47;;
41333;SDS011;27078;46.428;6.256;2023-03-15T04:53:37;0.75;;;0.30;;
41333;SDS011;27078;46.428;6.256;2023-03-15T04:56:03;1.17;;;0.45;;
41333;SDS011;27078;46.428;6.256;2023-03-15T04:58:29;1.38;;;0.40;;
41333;SDS011;27078;46.428;6.256;2023-03-15T05:00:55;0.57;;;0.35;;
41333;SDS011;27078;46.428;6.256;2023-03-15T05:03:20;1.13;;;0.47;;
41333;SDS011;27078;46.428;6.256;2023-03-15T05:05:45;2.42;;;0.43;;
41333;SDS011;27078;46.428;6.256;2023-03-15T05:08:11;2.22;;;0.43;;
41333;SDS011;27078;46.428;6.256;2023-03-15T05:10:36;1.55;;;0.40;;
41333;SDS011;27078;46.428;6.256;2023-03-15T05:13:01;1.73;;;0.40;;
41333;SDS011;27078;46.428;6.256;2023-03-15T05:15:27;0.88;;;0.40;;
41333;SDS011;27078;46.428;6.256;2023-03-15T05:17:52;1.40;;;0.40;;
41333;SDS011;27078;46.428;6.256;2023-03-15T05:20:20;1.70;;;0.43;;
41333;SDS011;27078;46.428;6.256;2023-03-15T05:22:46;1.40;;;0.40;;
41333;SDS011;27078;46.428;6.256;2023-03-15T05:25:11;0.93;;;0.25;;
41333;SDS011;27078;46.428;6.256;2023-03-15T05:27:38;1.95;;;0.30;;
41333;SDS011;27078;46.428;6.256;2023-03-15T05:30:04;0.85;;;0.25;;
41333;SDS011;27078;46.428;6.256;2023-03-15T05:32:31;1.92;;;0.28;;
41333;SDS011;27078;46.428;6.256;2023-03-15T05:35:01;1.70;;;0.30;;
41333;SDS011;27078;46.428;6.256;2023-03-15T05:37:26;1.23;;;0.50;;
41333;SDS011;27078;46.428;6.256;2023-03-15T05:39:52;1.58;;;0.50;;
41333;SDS011;27078;46.428;6.256;2023-03-15T05:42:17;1.70;;;0.40;;
41333;SDS011;27078;46.428;6.256;2023-03-15T05:44:49;1.23;;;0.30;;
41333;SDS011;27078;46.428;6.256;2023-03-15T05:47:14;1.67;;;0.30;;
41333;SDS011;27078;46.428;6.256;2023-03-15T05:49:40;1.20;;;0.60;;
41333;SDS011;27078;46.428;6.256;2023-03-15T05:52:05;1.02;;;0.38;;
41333;SDS011;27078;46.428;6.256;2023-03-15T05:54:31;1.55;;;0.50;;
41333;SDS011;27078;46.428;6.256;2023-03-15T05:56:56;1.08;;;0.30;;
41333;SDS011;27078;46.428;6.256;2023-03-15T05:59:21;2.75;;;0.30;;
41333;SDS011;27078;46.428;6.256;2023-03-15T06:01:47;1.08;;;0.20;;
41333;SDS011;27078;46.428;6.256;2023-03-15T06:04:12;2.22;;;0.30;;
41333;SDS011;27078;46.428;6.256;2023-03-15T06:06:38;1.42;;;0.38;;
41333;SDS011;27078;46.428;6.256;2023-03-15T06:09:03;0.77;;;0.30;;
41333;SDS011;27078;46.428;6.256;2023-03-15T06:11:28;0.98;;;0.20;;
41333;SDS011;27078;46.428;6.256;2023-03-15T06:13:54;1.20;;;0.30;;
41333;SDS011;27078;46.428;6.256;2023-03-15T06:16:19;1.25;;;0.25;;
41333;SDS011;27078;46.428;6.256;2023-03-15T06:18:44;1.77;;;0.30;;
41333;SDS011;27078;46.428;6.256;2023-03-15T06:21:10;0.50;;;0.20;;
41333;SDS011;27078;46.428;6.256;2023-03-15T06:23:35;1.30;;;0.30;;
41333;SDS011;27078;46.428;6.256;2023-03-15T06:26:00;1.17;;;0.20;;
41333;SDS011;27078;46.428;6.256;2023-03-15T06:28:26;1.00;;;0.30;;
41333;SDS011;27078;46.428;6.256;2023-03-15T06:30:51;0.38;;;0.20;;
41333;SDS011;27078;46.428;6.256;2023-03-15T06:33:16;1.30;;;0.20;;
41333;SDS011;27078;46.428;6.256;2023-03-15T06:35:42;0.17;;;0.15;;
41333;SDS011;27078;46.428;6.256;2023-03-15T06:38:07;0.45;;;0.20;;
41333;SDS011;27078;46.428;6.256;2023-03-15T06:40:32;1.42;;;0.30;;
41333;SDS011;27078;46.428;6.256;2023-03-15T06:42:58;1.27;;;0.25;;
41333;SDS011;27078;46.428;6.256;2023-03-15T06:45:28;0.85;;;0.20;;
41333;SDS011;27078;46.428;6.256;2023-03-15T06:47:55;1.05;;;0.15;;
41333;SDS011;27078;46.428;6.256;2023-03-15T06:50:21;1.25;;;0.30;;
41333;SDS011;27078;46.428;6.256;2023-03-15T06:52:46;1.92;;;0.30;;
41333;SDS011;27078;46.428;6.256;2023-03-15T06:55:11;1.40;;;0.50;;
41333;SDS011;27078;46.428;6.256;2023-03-15T06:57:41;0.70;;;0.30;;
41333;SDS011;27078;46.428;6.256;2023-03-15T07:00:07;0.90;;;0.40;;
41333;SDS011;27078;46.428;6.256;2023-03-15T07:02:35;0.80;;;0.30;;
41333;SDS011;27078;46.428;6.256;2023-03-15T07:05:02;7.93;;;3.58;;
41333;SDS011;27078;46.428;6.256;2023-03-15T07:07:30;72.25;;;30.92;;
41333;SDS011;27078;46.428;6.256;2023-03-15T07:09:56;38.40;;;16.85;;
41333;SDS011;27078;46.428;6.256;2023-03-15T07:12:21;25.13;;;10.65;;
41333;SDS011;27078;46.428;6.256;2023-03-15T07:14:47;11.43;;;5.50;;
41333;SDS011;27078;46.428;6.256;2023-03-15T07:17:13;5.40;;;2.38;;
41333;SDS011;27078;46.428;6.256;2023-03-15T07:19:39;2.65;;;1.00;;
41333;SDS011;27078;46.428;6.256;2023-03-15T07:22:04;2.67;;;0.90;;
41333;SDS011;27078;46.428;6.256;2023-03-15T07:24:29;1.10;;;0.40;;
41333;SDS011;27078;46.428;6.256;2023-03-15T07:26:55;1.52;;;0.30;;
41333;SDS011;27078;46.428;6.256;2023-03-15T07:29:21;1.23;;;0.43;;
41333;SDS011;27078;46.428;6.256;2023-03-15T07:31:47;2.35;;;0.50;;
41333;SDS011;27078;46.428;6.256;2023-03-15T07:34:13;1.05;;;0.40;;
41333;SDS011;27078;46.428;6.256;2023-03-15T07:36:39;1.90;;;0.88;;
41333;SDS011;27078;46.428;6.256;2023-03-15T07:39:04;6.13;;;0.98;;
41333;SDS011;27078;46.428;6.256;2023-03-15T07:41:30;2.90;;;0.73;;
41333;SDS011;27078;46.428;6.256;2023-03-15T07:43:55;5.35;;;1.05;;
41333;SDS011;27078;46.428;6.256;2023-03-15T07:46:21;4.43;;;0.80;;
41333;SDS011;27078;46.428;6.256;2023-03-15T07:48:46;3.40;;;0.77;;
41333;SDS011;27078;46.428;6.256;2023-03-15T07:51:12;5.32;;;0.88;;
41333;SDS011;27078;46.428;6.256;2023-03-15T07:53:37;3.05;;;0.70;;
41333;SDS011;27078;46.428;6.256;2023-03-15T07:56:02;2.05;;;0.60;;
41333;SDS011;27078;46.428;6.256;2023-03-15T07:58:28;3.85;;;0.70;;
41333;SDS011;27078;46.428;6.256;2023-03-15T08:00:54;2.60;;;0.50;;
41333;SDS011;27078;46.428;6.256;2023-03-15T08:03:20;3.47;;;0.68;;
41333;SDS011;27078;46.428;6.256;2023-03-15T08:05:46;3.65;;;0.60;;
41333;SDS011;27078;46.428;6.256;2023-03-15T08:08:11;5.53;;;0.93;;
41333;SDS011;27078;46.428;6.256;2023-03-15T08:10:37;2.90;;;0.70;;
41333;SDS011;27078;46.428;6.256;2023-03-15T08:13:02;6.03;;;0.73;;
41333;SDS011;27078;46.428;6.256;2023-03-15T08:15:28;3.90;;;0.52;;
41333;SDS011;27078;46.428;6.256;2023-03-15T08:17:53;4.05;;;0.80;;
41333;SDS011;27078;46.428;6.256;2023-03-15T08:20:19;3.95;;;0.70;;
41333;SDS011;27078;46.428;6.256;2023-03-15T08:22:45;2.78;;;0.70;;
41333;SDS011;27078;46.428;6.256;2023-03-15T08:25:12;4.60;;;0.60;;
41333;SDS011;27078;46.428;6.256;2023-03-15T08:27:39;2.00;;;0.60;;
41333;SDS011;27078;46.428;6.256;2023-03-15T08:30:06;1.73;;;0.60;;
41333;SDS011;27078;46.428;6.256;2023-03-15T08:32:32;2.10;;;0.40;;
41333;SDS011;27078;46.428;6.256;2023-03-15T08:34:58;2.10;;;0.40;;
41333;SDS011;27078;46.428;6.256;2023-03-15T08:37:23;2.97;;;0.60;;
41333;SDS011;27078;46.428;6.256;2023-03-15T08:39:49;2.53;;;0.50;;
41333;SDS011;27078;46.428;6.256;2023-03-15T08:42:21;2.17;;;0.57;;
41333;SDS011;27078;46.428;6.256;2023-03-15T08:44:47;1.35;;;0.40;;
41333;SDS011;27078;46.428;6.256;2023-03-15T08:47:12;1.45;;;0.47;;
41333;SDS011;27078;46.428;6.256;2023-03-15T08:49:38;2.47;;;0.60;;
41333;SDS011;27078;46.428;6.256;2023-03-15T08:52:03;1.52;;;0.60;;
41333;SDS011;27078;46.428;6.256;2023-03-15T08:54:29;2.95;;;0.70;;
41333;SDS011;27078;46.428;6.256;2023-03-15T08:56:55;1.70;;;0.40;;
41333;SDS011;27078;46.428;6.256;2023-03-15T08:59:20;1.75;;;0.50;;
41333;SDS011;27078;46.428;6.256;2023-03-15T09:01:46;3.25;;;0.32;;
41333;SDS011;27078;46.428;6.256;2023-03-15T09:04:11;1.48;;;0.52;;
41333;SDS011;27078;46.428;6.256;2023-03-15T09:06:36;1.63;;;0.40;;
41333;SDS011;27078;46.428;6.256;2023-03-15T09:09:02;4.13;;;0.50;;
41333;SDS011;27078;46.428;6.256;2023-03-15T09:11:27;1.90;;;0.63;;
41333;SDS011;27078;46.428;6.256;2023-03-15T09:13:53;2.50;;;0.52;;
41333;SDS011;27078;46.428;6.256;2023-03-15T09:16:18;1.80;;;0.60;;
41333;SDS011;27078;46.428;6.256;2023-03-15T09:18:43;3.88;;;0.60;;
41333;SDS011;27078;46.428;6.256;2023-03-15T09:21:09;2.78;;;0.50;;
41333;SDS011;27078;46.428;6.256;2023-03-15T09:23:35;3.03;;;0.50;;
41333;SDS011;27078;46.428;6.256;2023-03-15T09:26:00;2.35;;;0.47;;
41333;SDS011;27078;46.428;6.256;2023-03-15T09:28:26;2.10;;;0.50;;
41333;SDS011;27078;46.428;6.256;2023-03-15T09:30:51;0.82;;;0.30;;
41333;SDS011;27078;46.428;6.256;2023-03-15T09:33:18;1.42;;;0.38;;
41333;SDS011;27078;46.428;6.256;2023-03-15T09:35:43;1.70;;;0.50;;
41333;SDS011;27078;46.428;6.256;2023-03-15T09:38:08;2.67;;;0.50;;
41333;SDS011;27078;46.428;6.256;2023-03-15T09:40:38;1.50;;;0.50;;
41333;SDS011;27078;46.428;6.256;2023-03-15T09:48:15;1.60;;;0.50;;
41333;SDS011;27078;46.428;6.256;2023-03-15T09:50:50;1.30;;;0.47;;
41333;SDS011;27078;46.428;6.256;2023-03-15T09:55:58;3.78;;;0.65;;
41333;SDS011;27078;46.428;6.256;2023-03-15T09:58:24;2.63;;;0.50;;
41333;SDS011;27078;46.428;6.256;2023-03-15T10:00:57;2.70;;;0.63;;
41333;SDS011;27078;46.428;6.256;2023-03-15T10:06:46;1.50;;;0.70;;
41333;SDS011;27078;46.428;6.256;2023-03-15T10:09:20;2.15;;;0.60;;
41333;SDS011;27078;46.428;6.256;2023-03-15T10:17:11;1.98;;;0.60;;
41333;SDS011;27078;46.428;6.256;2023-03-15T10:19:49;2.55;;;0.80;;
41333;SDS011;27078;46.428;6.256;2023-03-15T10:22:20;3.88;;;0.57;;
41333;SDS011;27078;46.428;6.256;2023-03-15T10:27:39;1.50;;;0.60;;
41333;SDS011;27078;46.428;6.256;2023-03-15T10:32:44;3.03;;;0.60;;
41333;SDS011;27078;46.428;6.256;2023-03-15T10:35:15;2.50;;;0.52;;
41333;SDS011;27078;46.428;6.256;2023-03-15T10:37:42;2.42;;;0.65;;
41333;SDS011;27078;46.428;6.256;2023-03-15T10:40:08;2.63;;;1.00;;
41333;SDS011;27078;46.428;6.256;2023-03-15T10:42:44;2.13;;;0.60;;
41333;SDS011;27078;46.428;6.256;2023-03-15T10:45:21;2.13;;;0.65;;
41333;SDS011;27078;46.428;6.256;2023-03-15T10:47:50;1.98;;;0.80;;
41333;SDS011;27078;46.428;6.256;2023-03-15T10:50:17;1.33;;;0.50;;
41333;SDS011;27078;46.428;6.256;2023-03-15T10:52:53;1.70;;;0.43;;
41333;SDS011;27078;46.428;6.256;2023-03-15T10:55:26;1.90;;;0.57;;
41333;SDS011;27078;46.428;6.256;2023-03-15T10:57:56;1.13;;;0.38;;
41333;SDS011;27078;46.428;6.256;2023-03-15T11:00:30;2.00;;;0.70;;
41333;SDS011;27078;46.428;6.256;2023-03-15T11:03:01;2.10;;;0.40;;
41333;SDS011;27078;46.428;6.256;2023-03-15T11:05:37;1.10;;;0.40;;
41333;SDS011;27078;46.428;6.256;2023-03-15T11:08:09;2.50;;;0.75;;
41333;SDS011;27078;46.428;6.256;2023-03-15T11:10:37;2.53;;;0.55;;
41333;SDS011;27078;46.428;6.256;2023-03-15T11:16:02;1.15;;;0.40;;
41333;SDS011;27078;46.428;6.256;2023-03-15T11:21:12;1.05;;;0.40;;
41333;SDS011;27078;46.428;6.256;2023-03-15T11:23:40;2.47;;;0.30;;
41333;SDS011;27078;46.428;6.256;2023-03-15T11:26:11;1.92;;;0.40;;
41333;SDS011;27078;46.428;6.256;2023-03-15T11:28:42;1.80;;;0.30;;
41333;SDS011;27078;46.428;6.256;2023-03-15T11:31:12;1.25;;;0.40;;
41333;SDS011;27078;46.428;6.256;2023-03-15T11:33:46;1.55;;;0.40;;
41333;SDS011;27078;46.428;6.256;2023-03-15T11:36:20;3.05;;;0.80;;
41333;SDS011;27078;46.428;6.256;2023-03-15T11:38:47;1.00;;;0.30;;
41333;SDS011;27078;46.428;6.256;2023-03-15T11:41:15;2.53;;;0.30;;
41333;SDS011;27078;46.428;6.256;2023-03-15T11:44:06;1.00;;;0.28;;
41333;SDS011;27078;46.428;6.256;2023-03-15T11:46:48;1.58;;;0.40;;
41333;SDS011;27078;46.428;6.256;2023-03-15T11:49:34;1.35;;;0.20;;
41333;SDS011;27078;46.428;6.256;2023-03-15T11:52:04;1.20;;;0.20;;
41333;SDS011;27078;46.428;6.256;2023-03-15T11:54:30;0.85;;;0.30;;
41333;SDS011;27078;46.428;6.256;2023-03-15T11:56:56;1.70;;;0.50;;
41333;SDS011;27078;46.428;6.256;2023-03-15T11:59:36;1.60;;;0.32;;
41333;SDS011;27078;46.428;6.256;2023-03-15T12:09:40;0.70;;;0.20;;
41333;SDS011;27078;46.428;6.256;2023-03-15T12:15:00;0.95;;;0.25;;
41333;SDS011;27078;46.428;6.256;2023-03-15T12:17:53;1.48;;;0.10;;
41333;SDS011;27078;46.428;6.256;2023-03-15T12:20:21;1.50;;;0.20;;
41333;SDS011;27078;46.428;6.256;2023-03-15T12:25:55;0.98;;;0.20;;
41333;SDS011;27078;46.428;6.256;2023-03-15T12:30:53;0.43;;;0.10;;
41333;SDS011;27078;46.428;6.256;2023-03-15T12:33:21;0.63;;;0.10;;
41333;SDS011;27078;46.428;6.256;2023-03-15T12:35:48;0.98;;;0.20;;
41333;SDS011;27078;46.428;6.256;2023-03-15T12:38:15;1.05;;;0.10;;
41333;SDS011;27078;46.428;6.256;2023-03-15T12:43:33;0.73;;;0.20;;
41333;SDS011;27078;46.428;6.256;2023-03-15T12:54:17;0.65;;;0.20;;
41333;SDS011;27078;46.428;6.256;2023-03-15T12:56:46;0.55;;;0.10;;
41333;SDS011;27078;46.428;6.256;2023-03-15T13:01:57;0.90;;;0.00;;
41333;SDS011;27078;46.428;6.256;2023-03-15T13:04:25;0.63;;;0.00;;
41333;SDS011;27078;46.428;6.256;2023-03-15T13:12:44;0.70;;;0.10;;
41333;SDS011;27078;46.428;6.256;2023-03-15T13:15:22;0.40;;;0.10;;
41333;SDS011;27078;46.428;6.256;2023-03-15T13:17:56;0.13;;;0.00;;
41333;SDS011;27078;46.428;6.256;2023-03-15T13:20:41;0.45;;;0.08;;
41333;SDS011;27078;46.428;6.256;2023-03-15T13:28:24;1.02;;;0.30;;
41333;SDS011;27078;46.428;6.256;2023-03-15T13:31:01;1.05;;;0.40;;
41333;SDS011;27078;46.428;6.256;2023-03-15T13:33:35;0.30;;;0.10;;
41333;SDS011;27078;46.428;6.256;2023-03-15T13:36:02;0.10;;;0.00;;
41333;SDS011;27078;46.428;6.256;2023-03-15T13:41:05;0.52;;;0.10;;
41333;SDS011;27078;46.428;6.256;2023-03-15T13:43:40;1.23;;;0.00;;
41333;SDS011;27078;46.428;6.256;2023-03-15T13:46:06;0.68;;;0.03;;
41333;SDS011;27078;46.428;6.256;2023-03-15T13:48:33;0.30;;;0.10;;
41333;SDS011;27078;46.428;6.256;2023-03-15T13:51:02;0.45;;;0.00;;
41333;SDS011;27078;46.428;6.256;2023-03-15T13:53:30;0.50;;;0.00;;
41333;SDS011;27078;46.428;6.256;2023-03-15T13:55:58;2.08;;;0.10;;
41333;SDS011;27078;46.428;6.256;2023-03-15T13:58:24;0.30;;;0.10;;
41333;SDS011;27078;46.428;6.256;2023-03-15T14:00:54;0.20;;;0.03;;
41333;SDS011;27078;46.428;6.256;2023-03-15T14:03:22;1.42;;;0.10;;
41333;SDS011;27078;46.428;6.256;2023-03-15T14:05:49;0.20;;;0.10;;
41333;SDS011;27078;46.428;6.256;2023-03-15T14:08:32;0.90;;;0.10;;
41333;SDS011;27078;46.428;6.256;2023-03-15T14:11:06;0.75;;;0.10;;
41333;SDS011;27078;46.428;6.256;2023-03-15T14:13:54;0.32;;;0.00;;
41333;SDS011;27078;46.428;6.256;2023-03-15T14:16:40;0.28;;;0.08;;
41333;SDS011;27078;46.428;6.256;2023-03-15T14:19:13;0.55;;;0.10;;
41333;SDS011;27078;46.428;6.256;2023-03-15T14:21:42;0.15;;;0.00;;
41333;SDS011;27078;46.428;6.256;2023-03-15T14:24:12;0.30;;;0.00;;
41333;SDS011;27078;46.428;6.256;2023-03-15T14:26:41;0.45;;;0.10;;
41333;SDS011;27078;46.428;6.256;2023-03-15T14:29:14;0.17;;;0.00;;
41333;SDS011;27078;46.428;6.256;2023-03-15T14:31:46;0.08;;;0.00;;
41333;SDS011;27078;46.428;6.256;2023-03-15T14:34:30;7.30;;;0.30;;
41333;SDS011;27078;46.428;6.256;2023-03-15T14:40:03;0.10;;;0.00;;
41333;SDS011;27078;46.428;6.256;2023-03-15T14:42:51;0.10;;;0.08;;
41333;SDS011;27078;46.428;6.256;2023-03-15T14:45:17;0.98;;;0.10;;
41333;SDS011;27078;46.428;6.256;2023-03-15T14:47:50;0.40;;;0.10;;
41333;SDS011;27078;46.428;6.256;2023-03-15T14:50:17;0.20;;;0.00;;
41333;SDS011;27078;46.428;6.256;2023-03-15T14:52:45;0.55;;;0.10;;
41333;SDS011;27078;46.428;6.256;2023-03-15T14:55:20;0.68;;;0.10;;
41333;SDS011;27078;46.428;6.256;2023-03-15T14:57:47;0.93;;;0.20;;
41333;SDS011;27078;46.428;6.256;2023-03-15T15:00:14;0.50;;;0.10;;
41333;SDS011;27078;46.428;6.256;2023-03-15T15:02:41;0.30;;;0.10;;
41333;SDS011;27078;46.428;6.256;2023-03-15T15:05:16;0.20;;;0.08;;
41333;SDS011;27078;46.428;6.256;2023-03-15T15:07:46;1.80;;;0.20;;
41333;SDS011;27078;46.428;6.256;2023-03-15T15:10:12;1.15;;;0.20;;
41333;SDS011;27078;46.428;6.256;2023-03-15T15:12:37;0.80;;;0.10;;
41333;SDS011;27078;46.428;6.256;2023-03-15T15:15:16;1.45;;;0.20;;
41333;SDS011;27078;46.428;6.256;2023-03-15T15:17:43;0.47;;;0.10;;
41333;SDS011;27078;46.428;6.256;2023-03-15T15:20:09;0.45;;;0.10;;
41333;SDS011;27078;46.428;6.256;2023-03-15T15:22:36;1.27;;;0.10;;
41333;SDS011;27078;46.428;6.256;2023-03-15T15:25:11;2.33;;;0.22;;
41333;SDS011;27078;46.428;6.256;2023-03-15T15:27:38;1.55;;;0.10;;
41333;SDS011;27078;46.428;6.256;2023-03-15T15:30:04;0.22;;;0.10;;
41333;SDS011;27078;46.428;6.256;2023-03-15T15:32:30;0.57;;;0.10;;
41333;SDS011;27078;46.428;6.256;2023-03-15T15:34:58;2.17;;;0.20;;
41333;SDS011;27078;46.428;6.256;2023-03-15T15:37:23;1.02;;;0.28;;
41333;SDS011;27078;46.428;6.256;2023-03-15T15:39:49;1.02;;;0.10;;
41333;SDS011;27078;46.428;6.256;2023-03-15T15:42:15;0.82;;;0.10;;
41333;SDS011;27078;46.428;6.256;2023-03-15T15:44:40;0.52;;;0.10;;
41333;SDS011;27078;46.428;6.256;2023-03-15T15:47:05;0.10;;;0.03;;
41333;SDS011;27078;46.428;6.256;2023-03-15T15:49:31;1.13;;;0.20;;
41333;SDS011;27078;46.428;6.256;2023-03-15T15:51:56;1.23;;;0.10;;
41333;SDS011;27078;46.428;6.256;2023-03-15T15:54:25;0.57;;;0.10;;
41333;SDS011;27078;46.428;6.256;2023-03-15T15:56:57;1.52;;;0.10;;
41333;SDS011;27078;46.428;6.256;2023-03-15T15:59:24;0.35;;;0.00;;
41333;SDS011;27078;46.428;6.256;2023-03-15T16:01:51;0.57;;;0.10;;
41333;SDS011;27078;46.428;6.256;2023-03-15T16:04:18;0.50;;;0.10;;
41333;SDS011;27078;46.428;6.256;2023-03-15T16:06:45;1.08;;;0.08;;
41333;SDS011;27078;46.428;6.256;2023-03-15T16:09:15;0.38;;;0.10;;
41333;SDS011;27078;46.428;6.256;2023-03-15T16:11:43;0.63;;;0.10;;
41333;SDS011;27078;46.428;6.256;2023-03-15T16:14:09;0.88;;;0.10;;